Time,TemperatureF,DewpointF,PressureIn,WindDirection,WindDirectionDegrees,WindSpeedMPH,WindSpeedGustMPH,Humidity,HourlyPrecipIn,Conditions,Clouds,dailyrainin,SoftwareType,DateUTC
2013-03-27 00:03:00,64.0,19.7,25.28,WSW,241,13.2,18.8,18,0.00,,---,0.00,VWS V14.00,2013-03-27 07:03:00,
2013-03-27 00:08:00,64.0,19.7,25.28,SW,231,17.9,21.5,18,0.00,,---,0.00,VWS V14.00,2013-03-27 07:08:00,
2013-03-27 00:13:00,64.0,19.7,25.28,WSW,245,13.2,13.2,18,0.00,,---,0.00,VWS V14.00,2013-03-27 07:13:00,
2013-03-27 00:18:00,64.0,19.7,25.28,WSW,251,14.5,16.8,18,0.00,,---,0.00,VWS V14.00,2013-03-27 07:18:00,
2013-03-27 00:24:00,64.2,19.9,25.28,West,275,8.1,12.3,18,0.00,,---,0.00,VWS V14.00,2013-03-27 07:24:00,
2013-03-27 00:29:00,63.9,19.6,25.28,West,265,8.1,8.1,18,0.00,,---,0.00,VWS V14.00,2013-03-27 07:29:00,
2013-03-27 00:34:00,63.5,19.3,25.28,NNW,336,0.0,8.3,18,0.00,,---,0.00,VWS V14.00,2013-03-27 07:34:00,
2013-03-27 00:39:00,63.0,18.8,25.28,NNE,24,3.6,3.6,18,0.00,,---,0.00,VWS V14.00,2013-03-27 07:39:00,
2013-03-27 00:44:00,61.9,19.2,25.28,NNE,31,4.0,4.0,19,0.00,,---,0.00,VWS V14.00,2013-03-27 07:44:00,
2013-03-27 00:49:00,61.0,14.5,25.28,NW,306,5.8,5.8,16,0.00,,---,0.00,VWS V14.00,2013-03-27 07:49:00,
2013-03-27 00:54:00,59.9,15.0,25.28,WNW,286,3.6,3.6,17,0.00,,---,0.00,VWS V14.00,2013-03-27 07:54:00,
2013-03-27 00:59:00,60.1,15.1,25.28,NNW,328,5.4,5.4,17,0.00,,---,0.00,VWS V14.00,2013-03-27 07:59:00,
2013-03-27 01:04:00,60.6,15.6,25.28,NNW,328,0.0,0.0,17,0.00,,---,0.00,VWS V14.00,2013-03-27 08:04:00,
2013-03-27 01:09:00,60.4,15.4,25.28,NNW,330,5.8,5.8,17,0.00,,---,0.00,VWS V14.00,2013-03-27 08:09:00,
2013-03-27 01:15:00,60.1,15.1,25.28,WNW,297,4.0,4.0,17,0.00,,---,0.00,VWS V14.00,2013-03-27 08:15:00,
2013-03-27 01:20:00,60.6,15.6,25.28,WNW,297,0.0,0.0,17,0.00,,---,0.00,VWS V14.00,2013-03-27 08:20:00,
2013-03-27 01:25:00,60.8,18.3,25.28,NNW,334,0.0,3.6,19,0.00,,---,0.00,VWS V14.00,2013-03-27 08:25:00,
2013-03-27 01:30:00,60.1,15.1,25.28,WNW,296,0.0,0.0,17,0.00,,---,0.00,VWS V14.00,2013-03-27 08:30:00,
2013-03-27 01:35:00,58.6,14.0,25.28,WNW,296,0.0,0.0,17,0.00,,---,0.00,VWS V14.00,2013-03-27 08:35:00,
2013-03-27 01:40:00,57.0,12.7,25.28,NW,308,0.0,0.0,17,0.00,,---,0.00,VWS V14.00,2013-03-27 08:40:00,
2013-03-27 01:45:00,55.9,11.8,25.28,NNW,334,4.0,4.9,17,0.00,,---,0.00,VWS V14.00,2013-03-27 08:45:00,
2013-03-27 01:50:00,55.0,12.3,25.28,NNW,334,5.4,5.4,18,0.00,,---,0.00,VWS V14.00,2013-03-27 08:50:00,
2013-03-27 01:55:00,54.7,12.0,25.28,NNW,334,3.6,3.6,18,0.00,,---,0.00,VWS V14.00,2013-03-27 08:55:00,
2013-03-27 02:00:00,55.0,12.3,25.28,NNW,335,5.4,6.3,18,0.00,,---,0.00,VWS V14.00,2013-03-27 09:00:00,
2013-03-27 02:05:00,55.6,11.5,25.28,NW,308,3.1,4.0,17,0.00,,---,0.00,VWS V14.00,2013-03-27 09:05:00,
2013-03-27 02:10:00,55.2,12.5,25.28,WNW,298,4.0,5.8,18,0.00,,---,0.00,VWS V14.00,2013-03-27 09:10:00,
2013-03-27 02:15:00,55.2,12.5,25.28,NW,310,4.0,6.3,18,0.00,,---,0.00,VWS V14.00,2013-03-27 09:15:00,
2013-03-27 02:20:00,55.0,12.3,25.28,SW,231,2.7,4.0,18,0.00,,---,0.00,VWS V14.00,2013-03-27 09:20:00,
2013-03-27 02:25:00,55.8,11.6,25.28,SW,232,3.1,3.6,17,0.00,,---,0.00,VWS V14.00,2013-03-27 09:25:00,
2013-03-27 02:30:00,55.2,12.5,25.28,SW,221,2.7,3.6,18,0.00,,---,0.00,VWS V14.00,2013-03-27 09:30:00,
2013-03-27 02:35:00,54.3,11.7,25.28,SW,221,0.0,0.0,18,0.00,,---,0.00,VWS V14.00,2013-03-27 09:35:00,
2013-03-27 02:40:00,53.4,11.0,25.28,SW,221,0.0,0.0,18,0.00,,---,0.00,VWS V14.00,2013-03-27 09:40:00,
2013-03-27 02:45:00,52.9,10.6,25.28,SW,221,0.0,0.0,18,0.00,,---,0.00,VWS V14.00,2013-03-27 09:45:00,
2013-03-27 02:50:00,52.9,10.6,25.28,SW,221,0.0,0.0,18,0.00,,---,0.00,VWS V14.00,2013-03-27 09:50:00,
2013-03-27 02:56:00,52.5,10.2,25.28,SW,221,2.2,4.0,18,0.00,,---,0.00,VWS V14.00,2013-03-27 09:56:00,
2013-03-27 03:01:00,52.2,10.0,25.28,WSW,243,5.8,5.8,18,0.00,,---,0.00,VWS V14.00,2013-03-27 10:01:00,
2013-03-27 03:06:00,52.2,10.0,25.28,WSW,242,4.9,4.9,18,0.00,,---,0.00,VWS V14.00,2013-03-27 10:06:00,
2013-03-27 03:11:00,52.0,9.8,25.28,WSW,242,2.7,3.1,18,0.00,,---,0.00,VWS V14.00,2013-03-27 10:11:00,
2013-03-27 03:16:00,51.6,10.7,25.28,WSW,242,4.0,4.0,19,0.00,,---,0.00,VWS V14.00,2013-03-27 10:16:00,
2013-03-27 03:21:00,51.8,9.7,25.28,WSW,242,2.7,3.1,18,0.00,,---,0.00,VWS V14.00,2013-03-27 10:21:00,
2013-03-27 03:26:00,51.6,10.7,25.28,WSW,241,3.6,4.5,19,0.00,,---,0.00,VWS V14.00,2013-03-27 10:26:00,
2013-03-27 03:31:00,51.4,10.6,25.28,WSW,241,0.0,0.0,19,0.00,,---,0.00,VWS V14.00,2013-03-27 10:31:00,
2013-03-27 03:36:00,50.7,10.0,25.28,WSW,244,4.5,4.5,19,0.00,,---,0.00,VWS V14.00,2013-03-27 10:36:00,
2013-03-27 03:41:00,50.7,10.0,25.28,WSW,244,3.6,4.0,19,0.00,,---,0.00,VWS V14.00,2013-03-27 10:41:00,
2013-03-27 03:47:00,51.4,10.6,25.28,WSW,244,3.6,3.6,19,0.00,,---,0.00,VWS V14.00,2013-03-27 10:47:00,
2013-03-27 03:53:00,52.2,10.0,25.28,WSW,244,4.5,4.9,18,0.00,,---,0.00,VWS V14.00,2013-03-27 10:53:00,
2013-03-27 03:58:00,51.4,10.6,25.25,WSW,244,4.9,5.8,19,0.00,,---,0.00,VWS V14.00,2013-03-27 10:58:00,
2013-03-27 04:03:00,49.8,9.2,25.25,WSW,244,5.4,5.8,19,0.00,,---,0.00,VWS V14.00,2013-03-27 11:03:00,
2013-03-27 04:08:00,48.9,8.5,25.25,WSW,244,0.0,0.0,19,0.00,,---,0.00,VWS V14.00,2013-03-27 11:08:00,
2013-03-27 04:13:00,48.7,8.3,25.28,WSW,245,4.0,4.0,19,0.00,,---,0.00,VWS V14.00,2013-03-27 11:13:00,
2013-03-27 04:18:00,49.1,8.6,25.28,WSW,245,0.0,0.0,19,0.00,,---,0.00,VWS V14.00,2013-03-27 11:18:00,
2013-03-27 04:23:00,48.6,8.2,25.28,WSW,245,4.0,4.0,19,0.00,,---,0.00,VWS V14.00,2013-03-27 11:23:00,
2013-03-27 04:28:00,48.2,7.9,25.28,WSW,245,4.0,4.0,19,0.00,,---,0.00,VWS V14.00,2013-03-27 11:28:00,
2013-03-27 04:33:00,48.4,8.0,25.28,WSW,245,5.4,5.4,19,0.00,,---,0.00,VWS V14.00,2013-03-27 11:33:00,
2013-03-27 04:38:00,48.2,7.9,25.28,WSW,245,3.1,3.6,19,0.00,,---,0.00,VWS V14.00,2013-03-27 11:38:00,
2013-03-27 04:43:00,47.8,7.6,25.28,WSW,245,4.9,4.9,19,0.00,,---,0.00,VWS V14.00,2013-03-27 11:43:00,
2013-03-27 04:48:00,47.5,7.3,25.28,WSW,245,4.0,4.0,19,0.00,,---,0.00,VWS V14.00,2013-03-27 11:48:00,
2013-03-27 04:53:00,47.5,7.3,25.28,WSW,245,0.0,0.0,19,0.00,,---,0.00,VWS V14.00,2013-03-27 11:53:00,
2013-03-27 04:58:00,47.3,7.1,25.28,WSW,245,0.0,0.0,19,0.00,,---,0.00,VWS V14.00,2013-03-27 11:58:00,
2013-03-27 05:03:00,47.1,7.0,25.28,WSW,245,4.5,4.9,19,0.00,,---,0.00,VWS V14.00,2013-03-27 12:03:00,
2013-03-27 05:08:00,48.0,7.7,25.28,WSW,245,0.0,2.2,19,0.00,,---,0.00,VWS V14.00,2013-03-27 12:08:00,
2013-03-27 05:13:00,48.0,7.7,25.28,WSW,245,4.0,4.0,19,0.00,,---,0.00,VWS V14.00,2013-03-27 12:13:00,
2013-03-27 05:18:00,47.5,7.3,25.28,WSW,245,2.7,3.6,19,0.00,,---,0.00,VWS V14.00,2013-03-27 12:18:00,
2013-03-27 05:24:00,47.5,7.3,25.28,WSW,245,5.4,5.4,19,0.00,,---,0.00,VWS V14.00,2013-03-27 12:24:00,
2013-03-27 05:29:00,47.7,7.4,25.28,WSW,245,0.0,0.0,19,0.00,,---,0.00,VWS V14.00,2013-03-27 12:29:00,
2013-03-27 05:34:00,48.0,7.7,25.28,WSW,245,3.6,3.6,19,0.00,,---,0.00,VWS V14.00,2013-03-27 12:34:00,
2013-03-27 05:39:00,48.0,7.7,25.28,WSW,245,4.0,4.9,19,0.00,,---,0.00,VWS V14.00,2013-03-27 12:39:00,
2013-03-27 05:44:00,47.8,7.6,25.28,WSW,245,4.5,5.4,19,0.00,,---,0.00,VWS V14.00,2013-03-27 12:44:00,
2013-03-27 05:49:00,47.5,7.3,25.28,WSW,245,0.0,0.0,19,0.00,,---,0.00,VWS V14.00,2013-03-27 12:49:00,
2013-03-27 05:54:00,47.3,7.1,25.28,WSW,245,4.9,5.4,19,0.00,,---,0.00,VWS V14.00,2013-03-27 12:54:00,
2013-03-27 05:59:00,46.9,6.8,25.31,WSW,245,4.0,4.0,19,0.00,,---,0.00,VWS V14.00,2013-03-27 12:59:00,
2013-03-27 06:04:00,46.6,6.5,25.31,WSW,245,4.0,4.0,19,0.00,,---,0.00,VWS V14.00,2013-03-27 13:04:00,
2013-03-27 06:09:00,46.6,6.5,25.31,WSW,245,4.9,5.4,19,0.00,,---,0.00,VWS V14.00,2013-03-27 13:09:00,
2013-03-27 06:14:00,46.6,6.5,25.31,WSW,245,4.9,4.9,19,0.00,,---,0.00,VWS V14.00,2013-03-27 13:14:00,
2013-03-27 06:20:00,47.1,7.0,25.31,WSW,245,3.1,4.0,19,0.00,,---,0.00,VWS V14.00,2013-03-27 13:20:00,
2013-03-27 06:25:00,47.7,7.4,25.31,WSW,245,4.9,5.4,19,0.00,,---,0.00,VWS V14.00,2013-03-27 13:25:00,
2013-03-27 06:30:00,47.8,7.6,25.31,WSW,245,4.9,4.9,19,0.00,,---,0.00,VWS V14.00,2013-03-27 13:30:00,
2013-03-27 06:35:00,48.7,8.3,25.31,WSW,245,2.2,2.7,19,0.00,,---,0.00,VWS V14.00,2013-03-27 13:35:00,
2013-03-27 06:40:00,50.2,9.5,25.31,WSW,245,3.6,3.6,19,0.00,,---,0.00,VWS V14.00,2013-03-27 13:40:00,
2013-03-27 06:45:00,50.5,9.8,25.31,WSW,245,4.0,4.9,19,0.00,,---,0.00,VWS V14.00,2013-03-27 13:45:00,
2013-03-27 06:50:00,50.5,9.8,25.31,WSW,245,2.7,3.6,19,0.00,,---,0.00,VWS V14.00,2013-03-27 13:50:00,
2013-03-27 06:55:00,50.7,10.0,25.31,WSW,245,3.6,4.0,19,0.00,,---,0.00,VWS V14.00,2013-03-27 13:55:00,
2013-03-27 07:00:00,51.3,10.4,25.31,WSW,245,2.7,3.6,19,0.00,,---,0.00,VWS V14.00,2013-03-27 14:00:00,
2013-03-27 07:05:00,52.2,10.0,25.31,WSW,245,3.1,3.6,18,0.00,,---,0.00,VWS V14.00,2013-03-27 14:05:00,
2013-03-27 07:10:00,53.1,10.7,25.31,WSW,245,3.6,3.6,18,0.00,,---,0.00,VWS V14.00,2013-03-27 14:10:00,
2013-03-27 07:15:00,54.3,11.7,25.31,WSW,245,3.1,3.6,18,0.00,,---,0.00,VWS V14.00,2013-03-27 14:15:00,
2013-03-27 07:20:00,55.9,11.8,25.31,WSW,245,0.0,0.0,17,0.00,,---,0.00,VWS V14.00,2013-03-27 14:20:00,
2013-03-27 07:25:00,57.6,13.1,25.31,WSW,245,0.0,0.0,17,0.00,,---,0.00,VWS V14.00,2013-03-27 14:25:00,
2013-03-27 07:30:00,59.2,14.4,25.31,WSW,245,0.0,0.0,17,0.00,,---,0.00,VWS V14.00,2013-03-27 14:30:00,
2013-03-27 07:35:00,60.8,18.3,25.31,WSW,245,0.0,0.0,19,0.00,,---,0.00,VWS V14.00,2013-03-27 14:35:00,
2013-03-27 07:40:00,61.2,14.6,25.34,WSW,245,0.0,0.0,16,0.00,,---,0.00,VWS V14.00,2013-03-27 14:40:00,
2013-03-27 07:45:00,60.8,18.3,25.34,WSW,245,0.0,0.0,19,0.00,,---,0.00,VWS V14.00,2013-03-27 14:45:00,
2013-03-27 07:50:00,60.6,18.2,25.34,WSW,245,0.0,0.0,19,0.00,,---,0.00,VWS V14.00,2013-03-27 14:50:00,
2013-03-27 07:55:00,60.6,18.2,25.34,WSW,245,0.0,0.0,19,0.00,,---,0.00,VWS V14.00,2013-03-27 14:55:00,
2013-03-27 08:01:00,60.8,14.4,25.34,WSW,245,0.0,0.0,16,0.00,,---,0.00,VWS V14.00,2013-03-27 15:01:00,
2013-03-27 08:06:00,61.3,18.8,25.34,WSW,245,0.0,0.0,19,0.00,,---,0.00,VWS V14.00,2013-03-27 15:06:00,
2013-03-27 08:11:00,61.9,19.2,25.34,WSW,245,0.0,0.0,19,0.00,,---,0.00,VWS V14.00,2013-03-27 15:11:00,
2013-03-27 08:16:00,62.8,18.7,25.34,WSW,245,0.0,0.0,18,0.00,,---,0.00,VWS V14.00,2013-03-27 15:16:00,
2013-03-27 08:21:00,63.5,19.3,25.34,WSW,245,0.0,0.0,18,0.00,,---,0.00,VWS V14.00,2013-03-27 15:21:00,
2013-03-27 08:26:00,63.5,19.3,25.34,WSW,245,0.0,0.0,18,0.00,,---,0.00,VWS V14.00,2013-03-27 15:26:00,
2013-03-27 08:31:00,64.2,19.9,25.34,WSW,245,0.0,0.0,18,0.00,,---,0.00,VWS V14.00,2013-03-27 15:31:00,
2013-03-27 08:36:00,64.8,20.3,25.34,ESE,119,4.0,5.4,18,0.00,,---,0.00,VWS V14.00,2013-03-27 15:36:00,
2013-03-27 08:42:00,65.3,20.7,25.34,East,89,4.0,5.8,18,0.00,,---,0.00,VWS V14.00,2013-03-27 15:42:00,
2013-03-27 08:47:00,65.8,21.2,25.34,East,99,2.2,4.0,18,0.00,,---,0.00,VWS V14.00,2013-03-27 15:47:00,
2013-03-27 08:52:00,66.2,20.1,25.34,ESE,110,6.3,6.3,17,0.00,,---,0.00,VWS V14.00,2013-03-27 15:52:00,
2013-03-27 08:57:00,66.4,20.3,25.34,ESE,109,4.0,4.9,17,0.00,,---,0.00,VWS V14.00,2013-03-27 15:57:00,
2013-03-27 09:02:00,66.6,20.4,25.34,ENE,61,5.4,5.4,17,0.00,,---,0.00,VWS V14.00,2013-03-27 16:02:00,
2013-03-27 09:07:00,66.6,20.4,25.34,East,92,5.8,5.8,17,0.00,,---,0.00,VWS V14.00,2013-03-27 16:07:00,
2013-03-27 09:12:00,66.7,20.6,25.34,ENE,64,6.3,8.3,17,0.00,,---,0.00,VWS V14.00,2013-03-27 16:12:00,
2013-03-27 09:17:00,67.3,21.0,25.34,East,85,7.6,7.6,17,0.00,,---,0.00,VWS V14.00,2013-03-27 16:17:00,
2013-03-27 09:22:00,67.5,21.2,25.34,East,84,5.4,8.3,17,0.00,,---,0.00,VWS V14.00,2013-03-27 16:22:00,
2013-03-27 09:27:00,67.6,21.3,25.34,NE,56,4.0,6.3,17,0.00,,---,0.00,VWS V14.00,2013-03-27 16:27:00,
2013-03-27 09:32:00,68.2,21.7,25.34,East,96,4.0,6.3,17,0.00,,---,0.00,VWS V14.00,2013-03-27 16:32:00,
2013-03-27 09:37:00,68.4,21.9,25.34,ESE,109,5.4,7.6,17,0.00,,---,0.00,VWS V14.00,2013-03-27 16:37:00,
2013-03-27 09:42:00,68.4,21.9,25.34,East,99,5.8,5.8,17,0.00,,---,0.00,VWS V14.00,2013-03-27 16:42:00,
2013-03-27 09:47:00,68.7,22.2,25.34,NE,47,6.3,7.6,17,0.00,,---,0.00,VWS V14.00,2013-03-27 16:47:00,
2013-03-27 09:52:00,69.4,22.8,25.34,SE,125,11.0,11.0,17,0.00,,---,0.00,VWS V14.00,2013-03-27 16:52:00,
2013-03-27 09:57:00,70.5,23.6,25.34,ESE,123,7.6,8.3,17,0.00,,---,0.00,VWS V14.00,2013-03-27 16:57:00,
2013-03-27 10:02:00,70.9,23.9,25.34,SE,127,8.3,11.0,17,0.00,,---,0.00,VWS V14.00,2013-03-27 17:02:00,
2013-03-27 10:07:00,70.5,23.6,25.34,ESE,120,5.8,6.3,17,0.00,,---,0.00,VWS V14.00,2013-03-27 17:07:00,
2013-03-27 10:12:00,70.2,23.4,25.34,South,176,8.3,9.6,17,0.00,,---,0.00,VWS V14.00,2013-03-27 17:12:00,
2013-03-27 10:17:00,70.3,23.5,25.34,SSW,195,5.8,5.8,17,0.00,,---,0.00,VWS V14.00,2013-03-27 17:17:00,
2013-03-27 10:22:00,71.2,24.2,25.34,SSE,163,5.4,5.8,17,0.00,,---,0.00,VWS V14.00,2013-03-27 17:22:00,
2013-03-27 10:28:00,72.1,23.5,25.34,South,182,5.8,7.2,16,0.00,,---,0.00,VWS V14.00,2013-03-27 17:28:00,
2013-03-27 10:33:00,72.5,23.8,25.34,ESE,121,8.7,11.4,16,0.00,,---,0.00,VWS V14.00,2013-03-27 17:33:00,
2013-03-27 10:38:00,72.5,23.8,25.34,South,176,8.7,8.7,16,0.00,,---,0.00,VWS V14.00,2013-03-27 17:38:00,
2013-03-27 10:43:00,73.4,24.5,25.34,SSW,197,8.7,8.7,16,0.00,,---,0.00,VWS V14.00,2013-03-27 17:43:00,
2013-03-27 10:48:00,73.8,24.8,25.34,South,179,5.8,7.6,16,0.00,,---,0.00,VWS V14.00,2013-03-27 17:48:00,
2013-03-27 10:53:00,73.4,24.5,25.34,SW,230,5.4,6.7,16,0.00,,---,0.00,VWS V14.00,2013-03-27 17:53:00,
2013-03-27 10:58:00,73.8,24.8,25.34,South,184,7.6,8.3,16,0.00,,---,0.00,VWS V14.00,2013-03-27 17:58:00,
2013-03-27 11:03:00,73.9,25.0,25.34,South,170,5.8,8.3,16,0.00,,---,0.00,VWS V14.00,2013-03-27 18:03:00,
2013-03-27 11:08:00,74.3,25.2,25.34,SW,220,8.7,8.7,16,0.00,,---,0.00,VWS V14.00,2013-03-27 18:08:00,
2013-03-27 11:13:00,74.5,25.4,25.34,SSW,195,10.1,10.5,16,0.00,,---,0.00,VWS V14.00,2013-03-27 18:13:00,
2013-03-27 11:18:00,74.1,25.1,25.34,SW,220,3.1,3.6,16,0.00,,---,0.00,VWS V14.00,2013-03-27 18:18:00,
2013-03-27 11:23:00,74.1,25.1,25.34,SSW,204,10.5,15.4,16,0.00,,---,0.00,VWS V14.00,2013-03-27 18:23:00,
2013-03-27 11:28:00,74.3,25.2,25.34,SSE,166,6.3,6.3,16,0.00,,---,0.00,VWS V14.00,2013-03-27 18:28:00,
2013-03-27 11:33:00,74.1,25.1,25.34,South,171,8.3,8.3,16,0.00,,---,0.00,VWS V14.00,2013-03-27 18:33:00,
2013-03-27 11:38:00,73.9,25.0,25.34,WSW,250,5.4,5.4,16,0.00,,---,0.00,VWS V14.00,2013-03-27 18:38:00,
2013-03-27 11:43:00,74.3,25.2,25.31,WSW,237,8.7,11.0,16,0.00,,---,0.00,VWS V14.00,2013-03-27 18:43:00,
2013-03-27 11:49:00,73.9,25.0,25.31,SW,217,4.9,7.6,16,0.00,,---,0.00,VWS V14.00,2013-03-27 18:49:00,
2013-03-27 11:54:00,73.4,24.5,25.31,South,172,12.3,13.2,16,0.00,,---,0.00,VWS V14.00,2013-03-27 18:54:00,
2013-03-27 11:59:00,73.0,24.2,25.31,SSE,157,6.3,13.6,16,0.00,,---,0.00,VWS V14.00,2013-03-27 18:59:00,
2013-03-27 12:04:00,72.5,23.8,25.31,SSW,204,10.1,13.2,16,0.00,,---,0.00,VWS V14.00,2013-03-27 19:04:00,
2013-03-27 12:09:00,72.3,23.6,25.31,WNW,285,3.6,4.9,16,0.00,,---,0.00,VWS V14.00,2013-03-27 19:09:00,
2013-03-27 12:14:00,73.4,24.5,25.31,SSE,155,8.7,8.7,16,0.00,,---,0.00,VWS V14.00,2013-03-27 19:14:00,
2013-03-27 12:19:00,74.1,25.1,25.31,ESE,112,0.0,4.0,16,0.00,,---,0.00,VWS V14.00,2013-03-27 19:19:00,
2013-03-27 12:24:00,74.1,25.1,25.31,SE,126,3.1,4.9,16,0.00,,---,0.00,VWS V14.00,2013-03-27 19:24:00,
2013-03-27 12:29:00,74.3,25.2,25.31,ESE,122,3.1,8.3,16,0.00,,---,0.00,VWS V14.00,2013-03-27 19:29:00,
2013-03-27 12:34:00,74.7,25.5,25.31,SW,235,5.4,5.4,16,0.00,,---,0.00,VWS V14.00,2013-03-27 19:34:00,
2013-03-27 12:40:00,75.7,24.9,25.31,SSW,200,11.9,15.4,15,0.00,,---,0.00,VWS V14.00,2013-03-27 19:40:00,
2013-03-27 12:45:00,76.3,25.3,25.31,SSW,201,9.2,13.2,15,0.00,,---,0.00,VWS V14.00,2013-03-27 19:45:00,
2013-03-27 12:50:00,75.6,24.7,25.31,South,183,10.5,12.8,15,0.00,,---,0.00,VWS V14.00,2013-03-27 19:50:00,
2013-03-27 12:55:00,75.2,24.4,25.31,SW,226,8.1,8.1,15,0.00,,---,0.00,VWS V14.00,2013-03-27 19:55:00,
2013-03-27 13:00:00,75.9,25.0,25.31,SSW,204,8.3,12.8,15,0.00,,---,0.00,VWS V14.00,2013-03-27 20:00:00,
2013-03-27 13:05:00,76.5,25.4,25.31,SSE,148,10.5,15.4,15,0.00,,---,0.00,VWS V14.00,2013-03-27 20:05:00,
2013-03-27 13:10:00,76.6,25.6,25.31,SE,137,2.2,10.5,15,0.00,,---,0.00,VWS V14.00,2013-03-27 20:10:00,
2013-03-27 13:15:00,76.1,25.1,25.31,SE,134,3.6,4.9,15,0.00,,---,0.00,VWS V14.00,2013-03-27 20:15:00,
2013-03-27 13:20:00,77.0,25.9,25.31,West,268,5.4,5.4,15,0.00,,---,0.00,VWS V14.00,2013-03-27 20:20:00,
2013-03-27 13:25:00,77.7,26.4,25.31,NNW,337,5.4,8.1,15,0.00,,---,0.00,VWS V14.00,2013-03-27 20:25:00,
2013-03-27 13:30:00,77.4,26.1,25.28,SE,144,5.4,5.8,15,0.00,,---,0.00,VWS V14.00,2013-03-27 20:30:00,
2013-03-27 13:35:00,76.8,25.7,25.28,South,181,19.7,19.7,15,0.00,,---,0.00,VWS V14.00,2013-03-27 20:35:00,
2013-03-27 13:40:00,76.1,25.1,25.28,WSW,237,10.5,10.5,15,0.00,,---,0.00,VWS V14.00,2013-03-27 20:40:00,
2013-03-27 13:45:00,76.5,25.4,25.28,SSW,211,8.1,8.7,15,0.00,,---,0.00,VWS V14.00,2013-03-27 20:45:00,
2013-03-27 13:51:00,77.2,26.0,25.28,WSW,242,11.0,16.3,15,0.00,,---,0.00,VWS V14.00,2013-03-27 20:51:00,
2013-03-27 13:56:00,76.5,25.4,25.28,WNW,287,4.0,6.3,15,0.00,,---,0.00,VWS V14.00,2013-03-27 20:56:00,
2013-03-27 14:02:00,75.6,24.7,25.28,West,274,4.0,5.4,15,0.00,,---,0.00,VWS V14.00,2013-03-27 21:02:00,
2013-03-27 14:07:00,75.7,24.9,25.28,South,175,3.1,6.3,15,0.00,,---,0.00,VWS V14.00,2013-03-27 21:07:00,
2013-03-27 14:12:00,77.0,25.9,25.28,SSW,200,10.1,12.3,15,0.00,,---,0.00,VWS V14.00,2013-03-27 21:12:00,
2013-03-27 14:17:00,77.2,26.0,25.28,South,176,3.6,3.6,15,0.00,,---,0.00,VWS V14.00,2013-03-27 21:17:00,
2013-03-27 14:22:00,77.0,25.9,25.28,West,271,7.6,13.2,15,0.00,,---,0.00,VWS V14.00,2013-03-27 21:22:00,
2013-03-27 14:28:00,77.2,26.0,25.28,SSW,206,6.3,6.3,15,0.00,,---,0.00,VWS V14.00,2013-03-27 21:28:00,
2013-03-27 14:33:00,77.5,26.3,25.28,WSW,252,12.8,12.8,15,0.00,,---,0.00,VWS V14.00,2013-03-27 21:33:00,
2013-03-27 14:38:00,77.7,26.4,25.28,WSW,257,8.7,8.7,15,0.00,,---,0.00,VWS V14.00,2013-03-27 21:38:00,
2013-03-27 14:43:00,77.5,26.3,25.28,West,281,9.2,9.2,15,0.00,,---,0.00,VWS V14.00,2013-03-27 21:43:00,
2013-03-27 14:48:00,77.7,26.4,25.28,SW,214,8.1,8.7,15,0.00,,---,0.00,VWS V14.00,2013-03-27 21:48:00,
2013-03-27 14:53:00,77.9,26.6,25.28,SSW,192,6.3,6.3,15,0.00,,---,0.00,VWS V14.00,2013-03-27 21:53:00,
2013-03-27 14:58:00,77.4,26.1,25.28,West,270,15.0,15.0,15,0.00,,---,0.00,VWS V14.00,2013-03-27 21:58:00,
2013-03-27 15:03:00,77.0,25.9,25.28,WNW,286,12.8,12.8,15,0.00,,---,0.00,VWS V14.00,2013-03-27 22:03:00,
2013-03-27 15:08:00,76.8,25.7,25.28,NW,314,11.0,11.0,15,0.00,,---,0.00,VWS V14.00,2013-03-27 22:08:00,
2013-03-27 15:14:00,77.2,26.0,25.28,WSW,241,15.4,16.8,15,0.00,,---,0.00,VWS V14.00,2013-03-27 22:14:00,
2013-03-27 15:19:00,76.5,25.4,25.28,SW,235,5.4,8.3,15,0.00,,---,0.00,VWS V14.00,2013-03-27 22:19:00,
2013-03-27 15:24:00,76.3,25.3,25.28,SSW,205,10.5,39.4,15,0.00,,---,0.00,VWS V14.00,2013-03-27 22:24:00,
2013-03-27 15:29:00,75.7,24.9,25.28,West,273,12.3,13.6,15,0.00,,---,0.00,VWS V14.00,2013-03-27 22:29:00,
2013-03-27 15:34:00,75.0,25.8,25.28,WNW,302,13.2,13.2,16,0.00,,---,0.00,VWS V14.00,2013-03-27 22:34:00,
2013-03-27 15:39:00,74.8,25.7,25.28,South,189,8.1,10.5,16,0.00,,---,0.00,VWS V14.00,2013-03-27 22:39:00,
2013-03-27 15:44:00,75.2,24.4,25.28,West,261,8.3,8.3,15,0.00,,---,0.00,VWS V14.00,2013-03-27 22:44:00,
2013-03-27 15:49:00,75.7,24.9,25.28,SW,222,12.3,13.2,15,0.00,,---,0.00,VWS V14.00,2013-03-27 22:49:00,
2013-03-27 15:55:00,75.6,24.7,25.28,NW,307,11.4,12.8,15,0.00,,---,0.00,VWS V14.00,2013-03-27 22:55:00,
2013-03-27 16:00:00,75.0,25.8,25.28,South,188,5.4,5.4,16,0.00,,---,0.00,VWS V14.00,2013-03-27 23:00:00,
2013-03-27 16:05:00,74.8,25.7,25.28,SW,220,3.6,6.3,16,0.00,,---,0.00,VWS V14.00,2013-03-27 23:05:00,
2013-03-27 16:10:00,75.0,25.8,25.28,SSW,196,8.7,10.1,16,0.00,,---,0.00,VWS V14.00,2013-03-27 23:10:00,
2013-03-27 16:15:00,75.2,24.4,25.28,South,181,4.0,5.4,15,0.00,,---,0.00,VWS V14.00,2013-03-27 23:15:00,
2013-03-27 16:20:00,75.6,24.7,25.28,South,178,3.6,3.6,15,0.00,,---,0.00,VWS V14.00,2013-03-27 23:20:00,
2013-03-27 16:25:00,75.7,24.9,25.28,WSW,238,4.0,4.9,15,0.00,,---,0.00,VWS V14.00,2013-03-27 23:25:00,
2013-03-27 16:30:00,76.3,25.3,25.28,South,181,0.0,2.7,15,0.00,,---,0.00,VWS V14.00,2013-03-27 23:30:00,
2013-03-27 16:35:00,76.1,25.1,25.28,WSW,239,5.8,6.3,15,0.00,,---,0.00,VWS V14.00,2013-03-27 23:35:00,
2013-03-27 16:40:00,75.4,24.6,25.28,SW,226,5.8,6.3,15,0.00,,---,0.00,VWS V14.00,2013-03-27 23:40:00,
2013-03-27 16:45:00,75.0,25.8,25.28,SSW,203,3.6,8.3,16,0.00,,---,0.00,VWS V14.00,2013-03-27 23:45:00,
2013-03-27 16:50:00,74.8,25.7,25.28,SW,219,4.0,5.8,16,0.00,,---,0.00,VWS V14.00,2013-03-27 23:50:00,
2013-03-27 16:55:00,74.1,25.1,25.28,West,271,5.8,8.3,16,0.00,,---,0.00,VWS V14.00,2013-03-27 23:55:00,
2013-03-27 17:00:00,73.8,24.8,25.28,West,261,10.5,10.5,16,0.00,,---,0.00,VWS V14.00,2013-03-28 00:00:00,
2013-03-27 17:05:00,74.3,25.2,25.28,SW,223,3.6,4.0,16,0.00,,---,0.00,VWS V14.00,2013-03-28 00:05:00,
2013-03-27 17:10:00,74.8,25.7,25.28,South,178,5.8,9.2,16,0.00,,---,0.00,VWS V14.00,2013-03-28 00:10:00,
2013-03-27 17:15:00,74.8,25.7,25.28,SW,215,0.0,0.0,16,0.00,,---,0.00,VWS V14.00,2013-03-28 00:15:00,
2013-03-27 17:20:00,74.7,25.5,25.28,SW,235,3.6,5.8,16,0.00,,---,0.00,VWS V14.00,2013-03-28 00:20:00,
2013-03-27 17:25:00,74.5,25.4,25.28,ESE,120,0.0,0.0,16,0.00,,---,0.00,VWS V14.00,2013-03-28 00:25:00,
2013-03-27 17:31:00,74.5,25.4,25.28,South,179,10.5,12.3,16,0.00,,---,0.00,VWS V14.00,2013-03-28 00:31:00,
2013-03-27 17:36:00,73.8,24.8,25.28,SSW,205,7.6,8.1,16,0.00,,---,0.00,VWS V14.00,2013-03-28 00:36:00,
2013-03-27 17:42:00,73.0,24.2,25.28,SSW,194,0.0,2.7,16,0.00,,---,0.00,VWS V14.00,2013-03-28 00:42:00,
2013-03-27 17:47:00,72.9,24.1,25.28,SSE,157,4.9,4.9,16,0.00,,---,0.00,VWS V14.00,2013-03-28 00:47:00,
2013-03-27 17:52:00,72.3,23.6,25.28,SW,236,5.8,6.3,16,0.00,,---,0.00,VWS V14.00,2013-03-28 00:52:00,
2013-03-27 17:57:00,71.8,23.2,25.28,WSW,258,8.7,8.7,16,0.00,,---,0.00,VWS V14.00,2013-03-28 00:57:00,
2013-03-27 18:02:00,71.4,24.4,25.28,WSW,249,5.8,8.3,17,0.00,,---,0.00,VWS V14.00,2013-03-28 01:02:00,
2013-03-27 18:07:00,71.1,24.1,25.28,WNW,289,7.2,8.7,17,0.00,,---,0.00,VWS V14.00,2013-03-28 01:07:00,
2013-03-27 18:12:00,70.7,23.8,25.28,WSW,257,0.0,0.0,17,0.00,,---,0.00,VWS V14.00,2013-03-28 01:12:00,
2013-03-27 18:17:00,70.3,23.5,25.28,WSW,240,5.8,10.5,17,0.00,,---,0.00,VWS V14.00,2013-03-28 01:17:00,
2013-03-27 18:22:00,70.2,23.4,25.28,WSW,248,10.1,11.9,17,0.00,,---,0.00,VWS V14.00,2013-03-28 01:22:00,
2013-03-27 18:28:00,69.8,23.1,25.28,SW,234,6.3,6.3,17,0.00,,---,0.00,VWS V14.00,2013-03-28 01:28:00,
2013-03-27 18:33:00,69.4,22.8,25.28,WSW,251,5.4,6.3,17,0.00,,---,0.00,VWS V14.00,2013-03-28 01:33:00,
2013-03-27 18:38:00,69.1,22.5,25.28,West,273,12.8,13.2,17,0.00,,---,0.00,VWS V14.00,2013-03-28 01:38:00,
2013-03-27 18:43:00,69.4,22.8,25.28,SW,229,6.3,6.3,17,0.00,,---,0.00,VWS V14.00,2013-03-28 01:43:00,
2013-03-27 18:48:00,69.1,22.5,25.28,WSW,237,6.3,6.3,17,0.00,,---,0.00,VWS V14.00,2013-03-28 01:48:00,
2013-03-27 18:53:00,68.5,22.0,25.28,South,174,5.4,8.7,17,0.00,,---,0.00,VWS V14.00,2013-03-28 01:53:00,
2013-03-27 18:58:00,68.5,22.0,25.31,SW,230,5.4,7.6,17,0.00,,---,0.00,VWS V14.00,2013-03-28 01:58:00,
2013-03-27 19:03:00,68.4,21.9,25.31,SW,218,2.7,2.7,17,0.00,,---,0.00,VWS V14.00,2013-03-28 02:03:00,
2013-03-27 19:08:00,67.8,21.5,25.31,WSW,237,6.3,8.7,17,0.00,,---,0.00,VWS V14.00,2013-03-28 02:08:00,
2013-03-27 19:13:00,68.2,21.7,25.31,SW,228,3.6,4.9,17,0.00,,---,0.00,VWS V14.00,2013-03-28 02:13:00,
2013-03-27 19:18:00,68.2,21.7,25.31,SSW,210,5.4,5.8,17,0.00,,---,0.00,VWS V14.00,2013-03-28 02:18:00,
2013-03-27 19:24:00,68.2,21.7,25.31,SW,230,6.3,10.5,17,0.00,,---,0.00,VWS V14.00,2013-03-28 02:24:00,
2013-03-27 19:29:00,68.4,21.9,25.31,SW,221,6.3,8.3,17,0.00,,---,0.00,VWS V14.00,2013-03-28 02:29:00,
2013-03-27 19:34:00,68.5,22.0,25.31,SSW,210,7.2,7.2,17,0.00,,---,0.00,VWS V14.00,2013-03-28 02:34:00,
2013-03-27 19:39:00,68.4,21.9,25.31,WSW,239,8.3,10.1,17,0.00,,---,0.00,VWS V14.00,2013-03-28 02:39:00,
2013-03-27 19:44:00,68.4,21.9,25.31,SW,223,8.7,8.7,17,0.00,,---,0.00,VWS V14.00,2013-03-28 02:44:00,
2013-03-27 19:49:00,68.0,21.6,25.31,SW,236,4.9,5.8,17,0.00,,---,0.00,VWS V14.00,2013-03-28 02:49:00,
2013-03-27 19:54:00,67.5,21.2,25.31,SW,230,4.9,4.9,17,0.00,,---,0.00,VWS V14.00,2013-03-28 02:54:00,
2013-03-27 19:59:00,66.9,20.7,25.31,SW,231,4.0,5.4,17,0.00,,---,0.00,VWS V14.00,2013-03-28 02:59:00,
2013-03-27 20:04:00,66.6,20.4,25.31,WSW,245,6.3,6.3,17,0.00,,---,0.00,VWS V14.00,2013-03-28 03:04:00,
2013-03-27 20:09:00,66.4,20.3,25.31,SW,214,5.4,7.6,17,0.00,,---,0.00,VWS V14.00,2013-03-28 03:09:00,
2013-03-27 20:14:00,66.6,20.4,25.31,SW,236,5.4,5.4,17,0.00,,---,0.00,VWS V14.00,2013-03-28 03:14:00,
2013-03-27 20:19:00,66.4,20.3,25.31,SW,228,5.4,5.4,17,0.00,,---,0.00,VWS V14.00,2013-03-28 03:19:00,
2013-03-27 20:24:00,65.7,21.0,25.31,SW,235,4.9,5.4,18,0.00,,---,0.00,VWS V14.00,2013-03-28 03:24:00,
2013-03-27 20:29:00,65.1,20.6,25.31,West,274,8.1,10.1,18,0.00,,---,0.00,VWS V14.00,2013-03-28 03:29:00,
2013-03-27 20:35:00,65.7,21.0,25.31,WSW,251,8.1,8.7,18,0.00,,---,0.00,VWS V14.00,2013-03-28 03:35:00,
2013-03-27 20:40:00,66.0,21.3,25.31,WSW,241,6.3,6.3,18,0.00,,---,0.00,VWS V14.00,2013-03-28 03:40:00,
2013-03-27 20:45:00,65.8,21.2,25.31,WSW,250,5.4,5.8,18,0.00,,---,0.00,VWS V14.00,2013-03-28 03:45:00,
2013-03-27 20:50:00,65.8,21.2,25.31,WSW,239,6.3,8.7,18,0.00,,---,0.00,VWS V14.00,2013-03-28 03:50:00,
2013-03-27 20:55:00,65.7,21.0,25.31,West,263,5.4,5.4,18,0.00,,---,0.00,VWS V14.00,2013-03-28 03:55:00,
2013-03-27 21:00:00,65.5,20.9,25.34,WSW,250,5.8,6.7,18,0.00,,---,0.00,VWS V14.00,2013-03-28 04:00:00,
2013-03-27 21:01:00,65.3,20.7,25.34,WSW,247,5.4,5.8,18,0.00,,---,0.00,VWS V14.00,2013-03-28 04:01:00,
2013-03-27 21:03:00,65.1,20.6,25.34,WSW,240,5.8,6.3,18,0.00,,---,0.00,VWS V14.00,2013-03-28 04:03:00,
2013-03-27 21:08:00,64.8,20.3,25.34,WSW,245,5.8,6.3,18,0.00,,---,0.00,VWS V14.00,2013-03-28 04:08:00,
2013-03-27 21:13:00,64.6,20.1,25.34,SW,230,5.8,8.1,18,0.00,,---,0.00,VWS V14.00,2013-03-28 04:13:00,
2013-03-27 21:18:00,64.6,20.1,25.34,WSW,246,5.8,6.7,18,0.00,,---,0.00,VWS V14.00,2013-03-28 04:18:00,
2013-03-27 21:23:00,64.4,20.0,25.34,WSW,241,5.8,6.3,18,0.00,,---,0.00,VWS V14.00,2013-03-28 04:23:00,
2013-03-27 21:28:00,64.4,20.0,25.34,WSW,241,10.1,10.1,18,0.00,,---,0.00,VWS V14.00,2013-03-28 04:28:00,
2013-03-27 21:33:00,64.8,20.3,25.34,WSW,242,8.7,12.3,18,0.00,,---,0.00,VWS V14.00,2013-03-28 04:33:00,
2013-03-27 21:38:00,65.1,20.6,25.34,SW,233,10.1,10.1,18,0.00,,---,0.00,VWS V14.00,2013-03-28 04:38:00,
2013-03-27 21:43:00,65.1,20.6,25.34,WSW,240,8.3,10.1,18,0.00,,---,0.00,VWS V14.00,2013-03-28 04:43:00,
2013-03-27 21:48:00,65.1,20.6,25.34,WSW,242,10.5,10.5,18,0.00,,---,0.00,VWS V14.00,2013-03-28 04:48:00,
2013-03-27 21:54:00,65.1,20.6,25.34,WSW,246,8.1,11.0,18,0.00,,---,0.00,VWS V14.00,2013-03-28 04:54:00,
2013-03-27 21:59:00,65.5,20.9,25.34,WSW,253,11.4,11.4,18,0.00,,---,0.00,VWS V14.00,2013-03-28 04:59:00,
2013-03-27 22:04:00,65.5,20.9,25.34,WSW,244,12.8,12.8,18,0.00,,---,0.00,VWS V14.00,2013-03-28 05:04:00,
2013-03-27 22:09:00,65.3,20.7,25.34,WSW,255,8.3,8.7,18,0.00,,---,0.00,VWS V14.00,2013-03-28 05:09:00,
2013-03-27 22:14:00,65.1,20.6,25.34,WSW,253,12.8,12.8,18,0.00,,---,0.00,VWS V14.00,2013-03-28 05:14:00,
2013-03-27 22:19:00,65.1,20.6,25.34,WSW,252,8.1,11.0,18,0.00,,---,0.00,VWS V14.00,2013-03-28 05:19:00,
2013-03-27 22:24:00,65.3,20.7,25.34,WSW,256,8.3,12.8,18,0.00,,---,0.00,VWS V14.00,2013-03-28 05:24:00,
2013-03-27 22:29:00,65.3,20.7,25.34,WSW,248,11.4,12.8,18,0.00,,---,0.00,VWS V14.00,2013-03-28 05:29:00,
2013-03-27 22:34:00,65.1,20.6,25.34,WSW,241,12.3,12.8,18,0.00,,---,0.00,VWS V14.00,2013-03-28 05:34:00,
2013-03-27 22:39:00,64.8,20.3,25.34,West,259,11.4,12.8,18,0.00,,---,0.00,VWS V14.00,2013-03-28 05:39:00,
2013-03-27 22:44:00,64.8,20.3,25.34,WSW,244,15.0,15.0,18,0.00,,---,0.00,VWS V14.00,2013-03-28 05:44:00,
2013-03-27 22:49:00,64.8,20.3,25.34,SW,226,13.2,15.0,18,0.00,,---,0.00,VWS V14.00,2013-03-28 05:49:00,
2013-03-27 22:54:00,64.6,20.1,25.34,West,262,13.2,13.2,18,0.00,,---,0.00,VWS V14.00,2013-03-28 05:54:00,
2013-03-27 22:59:00,64.6,20.1,25.34,SW,232,15.0,15.4,18,0.00,,---,0.00,VWS V14.00,2013-03-28 05:59:00,
2013-03-27 23:05:00,64.6,20.1,25.34,SW,231,17.9,17.9,18,0.00,,---,0.00,VWS V14.00,2013-03-28 06:05:00,
2013-03-27 23:10:00,64.8,20.3,25.34,WSW,244,13.2,17.4,18,0.00,,---,0.00,VWS V14.00,2013-03-28 06:10:00,
2013-03-27 23:15:00,64.8,20.3,25.34,WSW,258,16.3,16.3,18,0.00,,---,0.00,VWS V14.00,2013-03-28 06:15:00,
2013-03-27 23:20:00,64.6,20.1,25.34,WSW,256,15.0,15.4,18,0.00,,---,0.00,VWS V14.00,2013-03-28 06:20:00,
2013-03-27 23:25:00,64.6,20.1,25.34,WSW,253,17.4,17.4,18,0.00,,---,0.00,VWS V14.00,2013-03-28 06:25:00,
2013-03-27 23:30:00,64.6,20.1,25.34,SW,228,13.2,15.4,18,0.00,,---,0.00,VWS V14.00,2013-03-28 06:30:00,
2013-03-27 23:35:00,64.8,20.3,25.34,SW,228,24.2,24.2,18,0.00,,---,0.00,VWS V14.00,2013-03-28 06:35:00,
2013-03-27 23:40:00,64.8,20.3,25.34,SW,234,11.0,17.9,18,0.00,,---,0.00,VWS V14.00,2013-03-28 06:40:00,
2013-03-27 23:45:00,64.6,20.1,25.34,SW,232,19.2,19.2,18,0.00,,---,0.00,VWS V14.00,2013-03-28 06:45:00,
2013-03-27 23:50:00,64.6,20.1,25.34,WSW,243,16.8,16.8,18,0.00,,---,0.00,VWS V14.00,2013-03-28 06:50:00,
2013-03-27 23:55:00,64.4,20.0,25.34,WSW,250,20.6,20.6,18,0.00,,---,0.00,VWS V14.00,2013-03-28 06:55:00,